sensor_id;sensor_type;location;lat;lon;timestamp;temperature;humidity
16515;DHT22;8370;52.556;7.970;2022-07-06T00:01:10;15.10;99.90
16515;DHT22;8370;52.556;7.970;2022-07-06T00:03:35;15.00;99.90
16515;DHT22;8370;52.556;7.970;2022-07-06T00:06:00;15.00;99.90
16515;DHT22;8370;52.556;7.970;2022-07-06T00:08:26;14.90;99.90
16515;DHT22;8370;52.556;7.970;2022-07-06T00:10:52;14.90;99.90
16515;DHT22;8370;52.556;7.970;2022-07-06T00:13:17;14.90;99.90
16515;DHT22;8370;52.556;7.970;2022-07-06T00:15:43;14.90;99.90
16515;DHT22;8370;52.556;7.970;2022-07-06T00:18:08;14.90;99.90
16515;DHT22;8370;52.556;7.970;2022-07-06T00:20:34;14.90;99.90
16515;DHT22;8370;52.556;7.970;2022-07-06T00:22:59;14.80;99.90
16515;DHT22;8370;52.556;7.970;2022-07-06T00:25:25;14.80;99.90
16515;DHT22;8370;52.556;7.970;2022-07-06T00:27:50;14.80;99.90
16515;DHT22;8370;52.556;7.970;2022-07-06T00:30:16;14.80;99.90
16515;DHT22;8370;52.556;7.970;2022-07-06T00:32:41;14.70;99.90
16515;DHT22;8370;52.556;7.970;2022-07-06T00:35:07;14.70;99.90
16515;DHT22;8370;52.556;7.970;2022-07-06T00:37:32;14.70;99.90
16515;DHT22;8370;52.556;7.970;2022-07-06T00:39:58;14.60;99.90
16515;DHT22;8370;52.556;7.970;2022-07-06T00:42:23;14.60;99.90
16515;DHT22;8370;52.556;7.970;2022-07-06T00:44:49;14.60;99.90
16515;DHT22;8370;52.556;7.970;2022-07-06T00:47:15;14.60;99.90
16515;DHT22;8370;52.556;7.970;2022-07-06T00:49:40;14.50;99.90
16515;DHT22;8370;52.556;7.970;2022-07-06T00:52:24;14.50;99.90
16515;DHT22;8370;52.556;7.970;2022-07-06T00:54:50;14.50;99.90
16515;DHT22;8370;52.556;7.970;2022-07-06T00:57:16;14.40;99.90
16515;DHT22;8370;52.556;7.970;2022-07-06T00:59:42;14.40;99.90
16515;DHT22;8370;52.556;7.970;2022-07-06T01:02:08;14.40;99.90
16515;DHT22;8370;52.556;7.970;2022-07-06T01:04:33;14.50;99.90
16515;DHT22;8370;52.556;7.970;2022-07-06T01:07:00;14.40;99.90
16515;DHT22;8370;52.556;7.970;2022-07-06T01:09:26;14.40;99.90
16515;DHT22;8370;52.556;7.970;2022-07-06T01:11:52;14.30;99.90
16515;DHT22;8370;52.556;7.970;2022-07-06T01:14:18;14.30;99.90
16515;DHT22;8370;52.556;7.970;2022-07-06T01:16:44;14.30;99.90
16515;DHT22;8370;52.556;7.970;2022-07-06T01:19:09;14.20;99.90
16515;DHT22;8370;52.556;7.970;2022-07-06T01:21:37;14.30;99.90
16515;DHT22;8370;52.556;7.970;2022-07-06T01:24:03;14.20;99.90
16515;DHT22;8370;52.556;7.970;2022-07-06T01:26:29;14.10;99.90
16515;DHT22;8370;52.556;7.970;2022-07-06T01:28:55;14.10;99.90
16515;DHT22;8370;52.556;7.970;2022-07-06T01:31:23;14.10;99.90
16515;DHT22;8370;52.556;7.970;2022-07-06T01:33:49;14.00;99.90
16515;DHT22;8370;52.556;7.970;2022-07-06T01:36:16;14.00;99.90
16515;DHT22;8370;52.556;7.970;2022-07-06T01:38:52;13.90;99.90
16515;DHT22;8370;52.556;7.970;2022-07-06T01:41:18;13.90;99.90
16515;DHT22;8370;52.556;7.970;2022-07-06T01:43:44;13.90;99.90
16515;DHT22;8370;52.556;7.970;2022-07-06T01:46:11;13.80;99.90
16515;DHT22;8370;52.556;7.970;2022-07-06T01:48:37;13.80;99.90
16515;DHT22;8370;52.556;7.970;2022-07-06T01:51:03;13.80;99.90
16515;DHT22;8370;52.556;7.970;2022-07-06T01:53:29;13.80;99.90
16515;DHT22;8370;52.556;7.970;2022-07-06T01:55:55;13.70;99.90
16515;DHT22;8370;52.556;7.970;2022-07-06T01:58:21;13.70;99.90
16515;DHT22;8370;52.556;7.970;2022-07-06T02:00:46;13.70;99.90
16515;DHT22;8370;52.556;7.970;2022-07-06T02:03:11;13.70;99.90
16515;DHT22;8370;52.556;7.970;2022-07-06T02:05:37;13.70;99.90
16515;DHT22;8370;52.556;7.970;2022-07-06T02:08:03;13.70;99.90
16515;DHT22;8370;52.556;7.970;2022-07-06T02:10:28;13.70;99.90
16515;DHT22;8370;52.556;7.970;2022-07-06T02:12:54;13.70;99.90
16515;DHT22;8370;52.556;7.970;2022-07-06T02:15:19;13.70;99.90
16515;DHT22;8370;52.556;7.970;2022-07-06T02:17:44;13.70;99.90
16515;DHT22;8370;52.556;7.970;2022-07-06T02:20:10;13.70;99.90
16515;DHT22;8370;52.556;7.970;2022-07-06T02:22:36;13.70;99.90
16515;DHT22;8370;52.556;7.970;2022-07-06T02:25:01;13.70;99.90
16515;DHT22;8370;52.556;7.970;2022-07-06T02:27:27;13.70;99.90
16515;DHT22;8370;52.556;7.970;2022-07-06T02:29:53;13.70;99.90
16515;DHT22;8370;52.556;7.970;2022-07-06T02:32:18;13.60;99.90
16515;DHT22;8370;52.556;7.970;2022-07-06T02:34:44;13.70;99.90
16515;DHT22;8370;52.556;7.970;2022-07-06T02:37:09;13.70;99.90
16515;DHT22;8370;52.556;7.970;2022-07-06T02:39:35;13.80;99.90
16515;DHT22;8370;52.556;7.970;2022-07-06T02:42:00;13.80;99.90
16515;DHT22;8370;52.556;7.970;2022-07-06T02:44:26;13.80;99.90
16515;DHT22;8370;52.556;7.970;2022-07-06T02:46:51;13.80;99.90
16515;DHT22;8370;52.556;7.970;2022-07-06T02:49:17;13.90;99.90
16515;DHT22;8370;52.556;7.970;2022-07-06T02:51:42;13.90;99.90
16515;DHT22;8370;52.556;7.970;2022-07-06T02:54:08;13.90;99.90
16515;DHT22;8370;52.556;7.970;2022-07-06T02:56:33;13.90;99.90
16515;DHT22;8370;52.556;7.970;2022-07-06T02:58:59;14.00;99.90
16515;DHT22;8370;52.556;7.970;2022-07-06T03:01:25;14.00;99.90
16515;DHT22;8370;52.556;7.970;2022-07-06T03:03:51;14.00;99.90
16515;DHT22;8370;52.556;7.970;2022-07-06T03:06:16;14.00;99.90
16515;DHT22;8370;52.556;7.970;2022-07-06T03:08:41;14.00;99.90
16515;DHT22;8370;52.556;7.970;2022-07-06T03:11:07;14.00;99.90
16515;DHT22;8370;52.556;7.970;2022-07-06T03:13:32;14.10;99.90
16515;DHT22;8370;52.556;7.970;2022-07-06T03:15:58;14.10;99.90
16515;DHT22;8370;52.556;7.970;2022-07-06T03:18:23;14.10;99.90
16515;DHT22;8370;52.556;7.970;2022-07-06T03:20:49;14.10;99.90
16515;DHT22;8370;52.556;7.970;2022-07-06T03:23:14;14.10;99.90
16515;DHT22;8370;52.556;7.970;2022-07-06T03:25:40;14.20;99.90
16515;DHT22;8370;52.556;7.970;2022-07-06T03:28:05;14.20;99.90
16515;DHT22;8370;52.556;7.970;2022-07-06T03:30:31;14.10;99.90
16515;DHT22;8370;52.556;7.970;2022-07-06T03:32:56;14.10;99.90
16515;DHT22;8370;52.556;7.970;2022-07-06T03:35:22;14.10;99.90
16515;DHT22;8370;52.556;7.970;2022-07-06T03:37:47;14.20;99.90
16515;DHT22;8370;52.556;7.970;2022-07-06T03:40:13;14.20;99.90
16515;DHT22;8370;52.556;7.970;2022-07-06T03:42:40;14.20;99.90
16515;DHT22;8370;52.556;7.970;2022-07-06T03:45:06;14.20;99.90
16515;DHT22;8370;52.556;7.970;2022-07-06T03:47:31;14.20;99.90
16515;DHT22;8370;52.556;7.970;2022-07-06T03:49:57;14.20;99.90
16515;DHT22;8370;52.556;7.970;2022-07-06T03:52:22;14.20;99.90
16515;DHT22;8370;52.556;7.970;2022-07-06T03:54:48;14.20;99.90
16515;DHT22;8370;52.556;7.970;2022-07-06T03:57:13;14.20;99.90
16515;DHT22;8370;52.556;7.970;2022-07-06T03:59:40;14.20;99.90
16515;DHT22;8370;52.556;7.970;2022-07-06T04:02:05;14.20;99.90
16515;DHT22;8370;52.556;7.970;2022-07-06T04:04:31;14.20;99.90
16515;DHT22;8370;52.556;7.970;2022-07-06T04:06:58;14.30;99.90
16515;DHT22;8370;52.556;7.970;2022-07-06T04:09:23;14.30;99.90
16515;DHT22;8370;52.556;7.970;2022-07-06T04:11:49;14.40;99.90
16515;DHT22;8370;52.556;7.970;2022-07-06T04:14:15;14.40;99.90
16515;DHT22;8370;52.556;7.970;2022-07-06T04:16:40;14.50;99.90
16515;DHT22;8370;52.556;7.970;2022-07-06T04:19:06;14.50;99.90
16515;DHT22;8370;52.556;7.970;2022-07-06T04:21:31;14.50;99.90
16515;DHT22;8370;52.556;7.970;2022-07-06T04:23:57;14.50;99.90
16515;DHT22;8370;52.556;7.970;2022-07-06T04:26:22;14.50;99.90
16515;DHT22;8370;52.556;7.970;2022-07-06T04:28:48;14.50;99.90
16515;DHT22;8370;52.556;7.970;2022-07-06T04:31:13;14.50;99.90
16515;DHT22;8370;52.556;7.970;2022-07-06T04:33:41;14.60;99.90
16515;DHT22;8370;52.556;7.970;2022-07-06T04:36:08;14.60;99.90
16515;DHT22;8370;52.556;7.970;2022-07-06T04:38:34;14.60;99.90
16515;DHT22;8370;52.556;7.970;2022-07-06T04:40:59;14.60;99.90
16515;DHT22;8370;52.556;7.970;2022-07-06T04:43:25;14.60;99.90
16515;DHT22;8370;52.556;7.970;2022-07-06T04:45:50;14.60;99.90
16515;DHT22;8370;52.556;7.970;2022-07-06T04:48:16;14.60;99.90
16515;DHT22;8370;52.556;7.970;2022-07-06T04:50:41;14.60;99.90
16515;DHT22;8370;52.556;7.970;2022-07-06T04:53:07;14.60;99.90
16515;DHT22;8370;52.556;7.970;2022-07-06T04:55:32;14.60;99.90
16515;DHT22;8370;52.556;7.970;2022-07-06T04:57:58;14.60;99.90
16515;DHT22;8370;52.556;7.970;2022-07-06T05:00:23;14.60;99.90
16515;DHT22;8370;52.556;7.970;2022-07-06T05:02:49;14.70;99.90
16515;DHT22;8370;52.556;7.970;2022-07-06T05:05:14;14.70;99.90
16515;DHT22;8370;52.556;7.970;2022-07-06T05:07:40;14.70;99.90
16515;DHT22;8370;52.556;7.970;2022-07-06T05:10:07;14.70;99.90
16515;DHT22;8370;52.556;7.970;2022-07-06T05:12:33;14.80;99.90
16515;DHT22;8370;52.556;7.970;2022-07-06T05:14:59;14.80;99.90
16515;DHT22;8370;52.556;7.970;2022-07-06T05:17:25;14.80;99.90
16515;DHT22;8370;52.556;7.970;2022-07-06T05:19:50;14.90;99.90
16515;DHT22;8370;52.556;7.970;2022-07-06T05:22:16;14.90;99.90
16515;DHT22;8370;52.556;7.970;2022-07-06T05:24:41;14.90;99.90
16515;DHT22;8370;52.556;7.970;2022-07-06T05:27:07;14.90;99.90
16515;DHT22;8370;52.556;7.970;2022-07-06T05:29:32;14.90;99.90
16515;DHT22;8370;52.556;7.970;2022-07-06T05:31:58;14.80;99.90
16515;DHT22;8370;52.556;7.970;2022-07-06T05:34:24;14.90;99.90
16515;DHT22;8370;52.556;7.970;2022-07-06T05:36:49;14.90;99.90
16515;DHT22;8370;52.556;7.970;2022-07-06T05:39:15;14.90;99.90
16515;DHT22;8370;52.556;7.970;2022-07-06T05:41:45;14.90;99.90
16515;DHT22;8370;52.556;7.970;2022-07-06T05:44:11;14.90;99.90
16515;DHT22;8370;52.556;7.970;2022-07-06T05:46:36;15.00;99.90
16515;DHT22;8370;52.556;7.970;2022-07-06T05:49:02;15.00;99.90
16515;DHT22;8370;52.556;7.970;2022-07-06T05:51:46;15.00;99.90
16515;DHT22;8370;52.556;7.970;2022-07-06T05:54:11;15.00;99.90
16515;DHT22;8370;52.556;7.970;2022-07-06T05:56:37;15.10;99.90
16515;DHT22;8370;52.556;7.970;2022-07-06T05:59:02;15.20;99.90
16515;DHT22;8370;52.556;7.970;2022-07-06T06:01:28;15.20;99.90
16515;DHT22;8370;52.556;7.970;2022-07-06T06:03:53;15.20;99.90
16515;DHT22;8370;52.556;7.970;2022-07-06T06:06:19;15.30;99.90
16515;DHT22;8370;52.556;7.970;2022-07-06T06:08:45;15.40;99.90
16515;DHT22;8370;52.556;7.970;2022-07-06T06:11:10;15.40;99.90
16515;DHT22;8370;52.556;7.970;2022-07-06T06:13:36;15.50;99.90
16515;DHT22;8370;52.556;7.970;2022-07-06T06:16:01;15.60;99.90
16515;DHT22;8370;52.556;7.970;2022-07-06T06:18:27;15.60;99.90
16515;DHT22;8370;52.556;7.970;2022-07-06T06:20:53;15.60;99.90
16515;DHT22;8370;52.556;7.970;2022-07-06T06:23:19;15.60;99.90
16515;DHT22;8370;52.556;7.970;2022-07-06T06:25:45;15.60;99.90
16515;DHT22;8370;52.556;7.970;2022-07-06T06:28:10;15.60;99.90
16515;DHT22;8370;52.556;7.970;2022-07-06T06:30:37;15.60;99.90
16515;DHT22;8370;52.556;7.970;2022-07-06T06:33:15;15.70;99.90
16515;DHT22;8370;52.556;7.970;2022-07-06T06:35:51;15.80;99.90
16515;DHT22;8370;52.556;7.970;2022-07-06T06:38:18;15.90;99.90
16515;DHT22;8370;52.556;7.970;2022-07-06T06:40:44;15.90;99.90
16515;DHT22;8370;52.556;7.970;2022-07-06T06:43:10;15.90;99.90
16515;DHT22;8370;52.556;7.970;2022-07-06T06:45:35;15.90;99.90
16515;DHT22;8370;52.556;7.970;2022-07-06T06:48:01;15.90;99.90
16515;DHT22;8370;52.556;7.970;2022-07-06T06:50:27;15.90;99.90
16515;DHT22;8370;52.556;7.970;2022-07-06T06:52:52;15.90;99.90
16515;DHT22;8370;52.556;7.970;2022-07-06T06:55:18;15.90;99.90
16515;DHT22;8370;52.556;7.970;2022-07-06T06:57:44;15.80;99.90
16515;DHT22;8370;52.556;7.970;2022-07-06T07:00:11;15.80;99.90
16515;DHT22;8370;52.556;7.970;2022-07-06T07:02:37;15.90;99.90
16515;DHT22;8370;52.556;7.970;2022-07-06T07:05:04;15.90;99.90
16515;DHT22;8370;52.556;7.970;2022-07-06T07:07:30;15.90;99.90
16515;DHT22;8370;52.556;7.970;2022-07-06T07:09:55;16.00;99.90
16515;DHT22;8370;52.556;7.970;2022-07-06T07:12:21;16.10;99.90
16515;DHT22;8370;52.556;7.970;2022-07-06T07:14:47;16.10;99.90
16515;DHT22;8370;52.556;7.970;2022-07-06T07:17:13;16.10;99.90
16515;DHT22;8370;52.556;7.970;2022-07-06T07:19:39;16.10;99.90
16515;DHT22;8370;52.556;7.970;2022-07-06T07:22:04;16.20;99.90
16515;DHT22;8370;52.556;7.970;2022-07-06T07:24:30;16.30;99.90
16515;DHT22;8370;52.556;7.970;2022-07-06T07:26:55;16.40;99.90
16515;DHT22;8370;52.556;7.970;2022-07-06T07:29:21;16.50;99.90
16515;DHT22;8370;52.556;7.970;2022-07-06T07:31:46;16.50;99.90
16515;DHT22;8370;52.556;7.970;2022-07-06T07:34:12;16.60;99.90
16515;DHT22;8370;52.556;7.970;2022-07-06T07:36:38;16.60;99.90
16515;DHT22;8370;52.556;7.970;2022-07-06T07:39:04;16.70;99.90
16515;DHT22;8370;52.556;7.970;2022-07-06T07:41:29;16.80;99.90
16515;DHT22;8370;52.556;7.970;2022-07-06T07:43:55;16.90;99.90
16515;DHT22;8370;52.556;7.970;2022-07-06T07:46:20;17.00;99.90
16515;DHT22;8370;52.556;7.970;2022-07-06T07:48:46;17.10;99.90
16515;DHT22;8370;52.556;7.970;2022-07-06T07:51:11;17.20;99.90
16515;DHT22;8370;52.556;7.970;2022-07-06T07:53:37;17.30;99.90
16515;DHT22;8370;52.556;7.970;2022-07-06T07:56:02;17.50;99.90
16515;DHT22;8370;52.556;7.970;2022-07-06T07:58:28;17.60;99.90
16515;DHT22;8370;52.556;7.970;2022-07-06T08:00:54;17.70;99.90
16515;DHT22;8370;52.556;7.970;2022-07-06T08:03:19;17.80;99.90
16515;DHT22;8370;52.556;7.970;2022-07-06T08:05:45;17.80;99.90
16515;DHT22;8370;52.556;7.970;2022-07-06T08:08:13;17.80;99.90
16515;DHT22;8370;52.556;7.970;2022-07-06T08:10:38;17.70;99.90
16515;DHT22;8370;52.556;7.970;2022-07-06T08:13:04;17.50;99.90
16515;DHT22;8370;52.556;7.970;2022-07-06T08:15:29;17.40;99.90
16515;DHT22;8370;52.556;7.970;2022-07-06T08:17:56;17.30;99.90
16515;DHT22;8370;52.556;7.970;2022-07-06T08:20:22;17.40;99.90
16515;DHT22;8370;52.556;7.970;2022-07-06T08:22:47;17.50;99.90
16515;DHT22;8370;52.556;7.970;2022-07-06T08:25:13;17.50;99.90
16515;DHT22;8370;52.556;7.970;2022-07-06T08:27:38;17.60;99.90
16515;DHT22;8370;52.556;7.970;2022-07-06T08:30:04;17.70;99.90
16515;DHT22;8370;52.556;7.970;2022-07-06T08:32:30;17.90;99.90
16515;DHT22;8370;52.556;7.970;2022-07-06T08:34:56;18.00;99.90
16515;DHT22;8370;52.556;7.970;2022-07-06T08:37:21;18.10;99.90
16515;DHT22;8370;52.556;7.970;2022-07-06T08:39:47;18.30;99.90
16515;DHT22;8370;52.556;7.970;2022-07-06T08:42:15;18.50;99.90
16515;DHT22;8370;52.556;7.970;2022-07-06T08:44:42;18.40;99.90
16515;DHT22;8370;52.556;7.970;2022-07-06T08:47:09;18.30;99.90
16515;DHT22;8370;52.556;7.970;2022-07-06T08:49:36;18.30;99.90
16515;DHT22;8370;52.556;7.970;2022-07-06T08:52:03;18.30;99.90
16515;DHT22;8370;52.556;7.970;2022-07-06T08:54:30;18.20;99.90
16515;DHT22;8370;52.556;7.970;2022-07-06T08:56:55;18.10;99.90
16515;DHT22;8370;52.556;7.970;2022-07-06T08:59:21;18.10;99.90
16515;DHT22;8370;52.556;7.970;2022-07-06T09:01:46;18.20;99.90
16515;DHT22;8370;52.556;7.970;2022-07-06T09:04:13;18.20;99.90
16515;DHT22;8370;52.556;7.970;2022-07-06T09:06:43;18.10;99.90
16515;DHT22;8370;52.556;7.970;2022-07-06T09:09:14;18.10;99.90
16515;DHT22;8370;52.556;7.970;2022-07-06T09:11:41;18.10;99.90
16515;DHT22;8370;52.556;7.970;2022-07-06T09:14:06;18.30;99.90
16515;DHT22;8370;52.556;7.970;2022-07-06T09:16:32;18.30;99.90
16515;DHT22;8370;52.556;7.970;2022-07-06T09:18:57;18.30;99.90
16515;DHT22;8370;52.556;7.970;2022-07-06T09:21:25;18.40;99.90
16515;DHT22;8370;52.556;7.970;2022-07-06T09:23:55;18.50;99.90
16515;DHT22;8370;52.556;7.970;2022-07-06T09:26:22;18.70;99.90
16515;DHT22;8370;52.556;7.970;2022-07-06T09:28:48;18.70;99.90
16515;DHT22;8370;52.556;7.970;2022-07-06T09:31:14;18.70;99.90
16515;DHT22;8370;52.556;7.970;2022-07-06T09:33:53;18.70;99.90
16515;DHT22;8370;52.556;7.970;2022-07-06T09:36:43;18.60;99.90
16515;DHT22;8370;52.556;7.970;2022-07-06T09:41:46;18.30;99.90
16515;DHT22;8370;52.556;7.970;2022-07-06T09:44:12;18.20;99.90
16515;DHT22;8370;52.556;7.970;2022-07-06T09:46:41;18.10;99.90
16515;DHT22;8370;52.556;7.970;2022-07-06T09:49:07;18.10;99.90
16515;DHT22;8370;52.556;7.970;2022-07-06T09:51:36;18.20;99.90
16515;DHT22;8370;52.556;7.970;2022-07-06T09:54:06;18.30;99.90
16515;DHT22;8370;52.556;7.970;2022-07-06T09:56:36;18.50;99.90
16515;DHT22;8370;52.556;7.970;2022-07-06T09:59:09;18.60;99.90
16515;DHT22;8370;52.556;7.970;2022-07-06T10:01:36;18.50;99.90
16515;DHT22;8370;52.556;7.970;2022-07-06T10:04:02;18.50;99.90
16515;DHT22;8370;52.556;7.970;2022-07-06T10:06:28;18.50;99.90
16515;DHT22;8370;52.556;7.970;2022-07-06T10:08:55;18.50;99.90
16515;DHT22;8370;52.556;7.970;2022-07-06T10:11:22;18.60;99.90
16515;DHT22;8370;52.556;7.970;2022-07-06T10:13:50;18.80;99.90
16515;DHT22;8370;52.556;7.970;2022-07-06T10:16:20;18.90;99.90
16515;DHT22;8370;52.556;7.970;2022-07-06T10:18:46;19.10;99.90
16515;DHT22;8370;52.556;7.970;2022-07-06T10:21:12;19.40;99.90
16515;DHT22;8370;52.556;7.970;2022-07-06T10:23:38;19.50;99.90
16515;DHT22;8370;52.556;7.970;2022-07-06T10:26:04;19.70;99.90
16515;DHT22;8370;52.556;7.970;2022-07-06T10:28:31;19.70;99.90
16515;DHT22;8370;52.556;7.970;2022-07-06T10:30:57;19.60;99.90
16515;DHT22;8370;52.556;7.970;2022-07-06T10:33:22;19.50;99.90
16515;DHT22;8370;52.556;7.970;2022-07-06T10:35:49;19.40;99.90
16515;DHT22;8370;52.556;7.970;2022-07-06T10:38:15;19.50;99.90
16515;DHT22;8370;52.556;7.970;2022-07-06T10:40:41;19.50;99.90
16515;DHT22;8370;52.556;7.970;2022-07-06T10:43:33;19.60;99.90
16515;DHT22;8370;52.556;7.970;2022-07-06T10:46:03;19.50;99.90
16515;DHT22;8370;52.556;7.970;2022-07-06T10:48:44;19.50;99.90
16515;DHT22;8370;52.556;7.970;2022-07-06T10:51:22;19.60;99.90
16515;DHT22;8370;52.556;7.970;2022-07-06T10:53:59;19.70;99.90
16515;DHT22;8370;52.556;7.970;2022-07-06T10:56:44;20.00;99.90
16515;DHT22;8370;52.556;7.970;2022-07-06T10:59:17;20.40;99.90
16515;DHT22;8370;52.556;7.970;2022-07-06T11:02:17;20.70;99.90
16515;DHT22;8370;52.556;7.970;2022-07-06T11:04:45;20.80;99.90
16515;DHT22;8370;52.556;7.970;2022-07-06T11:07:12;20.80;99.90
16515;DHT22;8370;52.556;7.970;2022-07-06T11:09:38;20.80;99.90
16515;DHT22;8370;52.556;7.970;2022-07-06T11:12:17;20.70;99.90
16515;DHT22;8370;52.556;7.970;2022-07-06T11:14:44;20.40;99.90
16515;DHT22;8370;52.556;7.970;2022-07-06T11:17:10;20.20;99.90
16515;DHT22;8370;52.556;7.970;2022-07-06T11:19:36;19.90;99.90
16515;DHT22;8370;52.556;7.970;2022-07-06T11:22:09;19.80;99.90
16515;DHT22;8370;52.556;7.970;2022-07-06T11:24:39;19.80;99.90
16515;DHT22;8370;52.556;7.970;2022-07-06T11:27:06;20.00;99.90
16515;DHT22;8370;52.556;7.970;2022-07-06T11:29:35;20.10;99.90
16515;DHT22;8370;52.556;7.970;2022-07-06T11:32:04;20.20;99.90
16515;DHT22;8370;52.556;7.970;2022-07-06T11:34:35;20.20;99.90
16515;DHT22;8370;52.556;7.970;2022-07-06T11:37:10;20.10;99.90
16515;DHT22;8370;52.556;7.970;2022-07-06T11:39:38;20.00;99.90
16515;DHT22;8370;52.556;7.970;2022-07-06T11:42:06;20.30;99.90
16515;DHT22;8370;52.556;7.970;2022-07-06T11:44:32;20.60;99.90
16515;DHT22;8370;52.556;7.970;2022-07-06T11:46:58;20.60;99.90
16515;DHT22;8370;52.556;7.970;2022-07-06T11:49:27;20.50;99.90
16515;DHT22;8370;52.556;7.970;2022-07-06T11:51:52;20.50;99.90
16515;DHT22;8370;52.556;7.970;2022-07-06T11:54:20;20.30;99.90
16515;DHT22;8370;52.556;7.970;2022-07-06T11:56:47;20.10;99.90
16515;DHT22;8370;52.556;7.970;2022-07-06T11:59:14;20.10;99.90
16515;DHT22;8370;52.556;7.970;2022-07-06T12:01:40;20.00;99.90
16515;DHT22;8370;52.556;7.970;2022-07-06T12:04:09;19.90;99.90
16515;DHT22;8370;52.556;7.970;2022-07-06T12:06:35;19.80;99.90
16515;DHT22;8370;52.556;7.970;2022-07-06T12:09:01;19.90;99.90
16515;DHT22;8370;52.556;7.970;2022-07-06T12:11:32;20.40;99.90
16515;DHT22;8370;52.556;7.970;2022-07-06T12:14:00;21.20;99.90
16515;DHT22;8370;52.556;7.970;2022-07-06T12:16:36;22.00;99.90
16515;DHT22;8370;52.556;7.970;2022-07-06T12:19:03;23.50;99.90
16515;DHT22;8370;52.556;7.970;2022-07-06T12:21:29;25.20;99.90
16515;DHT22;8370;52.556;7.970;2022-07-06T12:23:56;25.60;99.90
16515;DHT22;8370;52.556;7.970;2022-07-06T12:26:23;24.70;99.90
16515;DHT22;8370;52.556;7.970;2022-07-06T12:29:15;23.70;99.90
16515;DHT22;8370;52.556;7.970;2022-07-06T12:31:52;22.70;99.90
16515;DHT22;8370;52.556;7.970;2022-07-06T12:34:23;23.30;99.90
16515;DHT22;8370;52.556;7.970;2022-07-06T12:36:51;26.20;99.90
16515;DHT22;8370;52.556;7.970;2022-07-06T12:39:20;29.00;98.50
16515;DHT22;8370;52.556;7.970;2022-07-06T12:41:46;30.20;93.50
16515;DHT22;8370;52.556;7.970;2022-07-06T12:44:13;29.20;87.90
16515;DHT22;8370;52.556;7.970;2022-07-06T12:46:40;27.60;88.50
16515;DHT22;8370;52.556;7.970;2022-07-06T12:49:20;27.80;88.80
16515;DHT22;8370;52.556;7.970;2022-07-06T12:52:15;27.50;88.70
16515;DHT22;8370;52.556;7.970;2022-07-06T12:57:15;25.60;90.60
16515;DHT22;8370;52.556;7.970;2022-07-06T13:02:20;27.20;91.80
16515;DHT22;8370;52.556;7.970;2022-07-06T13:05:09;28.10;88.50
16515;DHT22;8370;52.556;7.970;2022-07-06T13:07:36;27.30;89.40
16515;DHT22;8370;52.556;7.970;2022-07-06T13:10:05;26.30;89.20
16515;DHT22;8370;52.556;7.970;2022-07-06T13:12:31;25.30;89.80
16515;DHT22;8370;52.556;7.970;2022-07-06T13:14:57;24.60;91.60
16515;DHT22;8370;52.556;7.970;2022-07-06T13:17:23;24.00;91.90
16515;DHT22;8370;52.556;7.970;2022-07-06T13:19:49;23.60;92.40
16515;DHT22;8370;52.556;7.970;2022-07-06T13:22:15;23.60;91.80
16515;DHT22;8370;52.556;7.970;2022-07-06T13:24:41;23.20;91.40
16515;DHT22;8370;52.556;7.970;2022-07-06T13:27:07;22.80;92.30
16515;DHT22;8370;52.556;7.970;2022-07-06T13:29:33;22.50;92.80
16515;DHT22;8370;52.556;7.970;2022-07-06T13:31:59;22.20;93.10
16515;DHT22;8370;52.556;7.970;2022-07-06T13:34:25;22.00;93.80
16515;DHT22;8370;52.556;7.970;2022-07-06T13:36:51;22.00;94.20
16515;DHT22;8370;52.556;7.970;2022-07-06T13:39:17;22.10;95.10
16515;DHT22;8370;52.556;7.970;2022-07-06T13:41:43;22.10;95.20
16515;DHT22;8370;52.556;7.970;2022-07-06T13:44:09;22.00;95.10
16515;DHT22;8370;52.556;7.970;2022-07-06T13:46:37;21.80;95.00
16515;DHT22;8370;52.556;7.970;2022-07-06T13:49:04;21.70;95.10
16515;DHT22;8370;52.556;7.970;2022-07-06T13:51:30;21.50;95.40
16515;DHT22;8370;52.556;7.970;2022-07-06T13:53:58;21.50;95.70
16515;DHT22;8370;52.556;7.970;2022-07-06T13:56:23;21.40;96.20
16515;DHT22;8370;52.556;7.970;2022-07-06T13:58:49;21.50;96.40
16515;DHT22;8370;52.556;7.970;2022-07-06T14:01:14;21.50;95.80
16515;DHT22;8370;52.556;7.970;2022-07-06T14:03:40;21.40;95.40
16515;DHT22;8370;52.556;7.970;2022-07-06T14:06:06;21.30;95.40
16515;DHT22;8370;52.556;7.970;2022-07-06T14:08:34;21.20;95.90
16515;DHT22;8370;52.556;7.970;2022-07-06T14:11:00;21.20;95.90
16515;DHT22;8370;52.556;7.970;2022-07-06T14:13:26;21.20;96.20
16515;DHT22;8370;52.556;7.970;2022-07-06T14:15:52;21.20;96.50
16515;DHT22;8370;52.556;7.970;2022-07-06T14:18:18;21.20;96.40
16515;DHT22;8370;52.556;7.970;2022-07-06T14:20:45;21.20;96.80
16515;DHT22;8370;52.556;7.970;2022-07-06T14:23:11;21.20;97.00
16515;DHT22;8370;52.556;7.970;2022-07-06T14:25:38;21.20;96.70
16515;DHT22;8370;52.556;7.970;2022-07-06T14:28:03;21.10;97.30
16515;DHT22;8370;52.556;7.970;2022-07-06T14:30:29;21.10;97.30
16515;DHT22;8370;52.556;7.970;2022-07-06T14:32:55;21.00;97.40
16515;DHT22;8370;52.556;7.970;2022-07-06T14:35:21;20.90;97.50
16515;DHT22;8370;52.556;7.970;2022-07-06T14:37:47;20.80;97.60
16515;DHT22;8370;52.556;7.970;2022-07-06T14:40:13;20.80;97.90
16515;DHT22;8370;52.556;7.970;2022-07-06T14:42:38;20.90;97.90
16515;DHT22;8370;52.556;7.970;2022-07-06T14:45:04;21.00;97.80
16515;DHT22;8370;52.556;7.970;2022-07-06T14:47:30;21.10;98.30
16515;DHT22;8370;52.556;7.970;2022-07-06T14:49:55;21.20;97.70
16515;DHT22;8370;52.556;7.970;2022-07-06T14:52:21;21.40;98.00
16515;DHT22;8370;52.556;7.970;2022-07-06T14:54:46;21.60;97.80
16515;DHT22;8370;52.556;7.970;2022-07-06T14:57:12;21.60;97.70
16515;DHT22;8370;52.556;7.970;2022-07-06T14:59:38;21.50;97.80
16515;DHT22;8370;52.556;7.970;2022-07-06T15:02:04;21.30;97.30
16515;DHT22;8370;52.556;7.970;2022-07-06T15:04:29;21.10;97.40
16515;DHT22;8370;52.556;7.970;2022-07-06T15:06:55;21.00;98.30
16515;DHT22;8370;52.556;7.970;2022-07-06T15:09:20;20.90;98.30
16515;DHT22;8370;52.556;7.970;2022-07-06T15:11:46;20.80;98.80
16515;DHT22;8370;52.556;7.970;2022-07-06T15:14:12;20.80;99.00
16515;DHT22;8370;52.556;7.970;2022-07-06T15:16:38;20.90;99.50
16515;DHT22;8370;52.556;7.970;2022-07-06T15:19:04;20.90;99.20
16515;DHT22;8370;52.556;7.970;2022-07-06T15:21:30;20.90;98.50
16515;DHT22;8370;52.556;7.970;2022-07-06T15:23:55;20.90;98.80
16515;DHT22;8370;52.556;7.970;2022-07-06T15:26:21;21.00;98.50
16515;DHT22;8370;52.556;7.970;2022-07-06T15:28:46;21.30;98.50
16515;DHT22;8370;52.556;7.970;2022-07-06T15:31:12;21.40;98.20
16515;DHT22;8370;52.556;7.970;2022-07-06T15:33:37;21.30;98.50
16515;DHT22;8370;52.556;7.970;2022-07-06T15:36:03;21.30;98.60
16515;DHT22;8370;52.556;7.970;2022-07-06T15:38:29;21.50;98.90
16515;DHT22;8370;52.556;7.970;2022-07-06T15:40:54;21.50;99.40
16515;DHT22;8370;52.556;7.970;2022-07-06T15:43:28;21.40;98.80
16515;DHT22;8370;52.556;7.970;2022-07-06T15:45:56;21.30;98.90
16515;DHT22;8370;52.556;7.970;2022-07-06T15:48:23;21.10;98.50
16515;DHT22;8370;52.556;7.970;2022-07-06T15:50:48;20.90;98.70